createdAt,value
2022-09-15T00:01:04.221Z,20.27
2022-09-15T00:04:08.779Z,20.25
2022-09-15T00:07:11.568Z,20.23
2022-09-15T00:10:14.966Z,20.21
2022-09-15T00:13:18.315Z,20.15
2022-09-15T00:16:24.466Z,20.18
2022-09-15T00:19:27.281Z,20.14
2022-09-15T00:22:30.413Z,20.12
2022-09-15T00:25:33.464Z,20.09
2022-09-15T00:28:37.591Z,20.06
2022-09-15T00:31:40.409Z,20.02
2022-09-15T00:34:43.517Z,19.93
2022-09-15T00:37:46.567Z,19.95
2022-09-15T00:40:56.267Z,19.98
2022-09-15T00:44:26.695Z,19.96
2022-09-15T00:47:39.702Z,19.91
2022-09-15T00:50:46.045Z,19.81
2022-09-15T00:53:51.032Z,19.74
2022-09-15T00:56:57.154Z,19.72
2022-09-15T01:00:04.221Z,19.62
2022-09-15T01:03:07.754Z,19.39
2022-09-15T01:06:16.546Z,19.29
2022-09-15T01:09:27.772Z,19.16
2022-09-15T01:12:31.469Z,19.06
2022-09-15T01:15:55.978Z,19.01
2022-09-15T01:19:27.358Z,18.96
2022-09-15T01:22:56.875Z,18.92
2022-09-15T01:26:00.147Z,18.93
2022-09-15T01:29:31.363Z,18.89
2022-09-15T01:33:05.933Z,18.83
2022-09-15T01:36:18.361Z,18.80
2022-09-15T01:39:25.746Z,18.77
2022-09-15T01:42:31.228Z,18.76
2022-09-15T01:45:39.101Z,18.79
2022-09-15T01:48:43.435Z,18.75
2022-09-15T01:51:52.136Z,18.65
2022-09-15T01:55:02.253Z,18.47
2022-09-15T01:58:05.799Z,18.41
2022-09-15T02:01:08.577Z,18.34
2022-09-15T02:04:23.911Z,18.31
2022-09-15T02:07:32.003Z,18.29
2022-09-15T02:10:44.476Z,18.31
2022-09-15T02:14:03.849Z,18.33
2022-09-15T02:17:14.985Z,18.33
2022-09-15T02:20:42.419Z,18.32
2022-09-15T02:23:51.303Z,18.33
2022-09-15T02:26:55.432Z,18.33
2022-09-15T02:30:06.015Z,18.31
2022-09-15T02:33:16.507Z,18.35
2022-09-15T02:36:21.575Z,18.31
2022-09-15T02:39:31.552Z,18.34
2022-09-15T02:42:35.266Z,18.36
2022-09-15T02:45:38.287Z,18.34
2022-09-15T02:48:41.717Z,18.35
2022-09-15T02:51:44.569Z,18.27
2022-09-15T02:54:48.175Z,18.34
2022-09-15T02:57:50.950Z,18.33
2022-09-15T03:00:56.015Z,18.29
2022-09-15T03:03:59.266Z,18.31
2022-09-15T03:07:02.419Z,18.29
2022-09-15T03:10:06.773Z,18.26
2022-09-15T03:13:09.785Z,18.27
2022-09-15T03:16:14.873Z,18.20
2022-09-15T03:19:18.097Z,18.26
2022-09-15T03:22:21.556Z,18.21
2022-09-15T03:25:27.063Z,18.15
2022-09-15T03:28:30.376Z,18.16
2022-09-15T03:31:33.482Z,18.24
2022-09-15T03:34:36.516Z,18.20
2022-09-15T03:37:39.609Z,18.23
2022-09-15T03:40:43.868Z,18.23
2022-09-15T03:43:46.932Z,18.25
2022-09-15T03:46:50.277Z,18.18
2022-09-15T03:49:53.406Z,18.19
2022-09-15T03:52:58.807Z,18.26
2022-09-15T03:56:18.207Z,18.25
2022-09-15T03:59:21.696Z,18.25
2022-09-15T04:02:25.187Z,18.22
2022-09-15T04:05:29.024Z,18.14
2022-09-15T04:08:32.185Z,18.18
2022-09-15T04:11:35.444Z,18.14
2022-09-15T04:14:38.497Z,18.09
2022-09-15T04:17:41.715Z,18.09
2022-09-15T04:20:44.541Z,18.10
2022-09-15T04:23:48.715Z,18.09
2022-09-15T04:26:51.821Z,18.06
2022-09-15T04:29:54.833Z,18.00
2022-09-15T04:32:57.633Z,18.03
2022-09-15T04:36:11.671Z,18.03
2022-09-15T04:39:14.484Z,18.12
2022-09-15T04:42:17.664Z,18.15
2022-09-15T04:45:21.626Z,18.18
2022-09-15T04:48:25.586Z,18.19
2022-09-15T04:51:28.747Z,18.19
2022-09-15T04:54:34.746Z,18.23
2022-09-15T04:57:37.717Z,18.27
2022-09-15T05:00:46.045Z,18.32
2022-09-15T05:03:49.737Z,18.37
2022-09-15T05:06:52.884Z,18.40
2022-09-15T05:09:55.693Z,18.45
2022-09-15T05:12:58.740Z,18.49
2022-09-15T05:16:12.419Z,18.44
2022-09-15T05:19:15.624Z,18.51
2022-09-15T05:22:18.450Z,18.54
2022-09-15T05:25:21.526Z,18.53
2022-09-15T05:28:24.950Z,18.54
2022-09-15T05:31:33.898Z,18.66
2022-09-15T05:34:36.922Z,18.73
2022-09-15T05:37:39.955Z,18.71
2022-09-15T05:40:42.902Z,18.83
2022-09-15T05:43:47.489Z,18.82
2022-09-15T05:46:50.269Z,18.74
2022-09-15T05:49:53.949Z,18.83
2022-09-15T05:52:57.119Z,18.84
2022-09-15T05:56:03.253Z,18.88
2022-09-15T05:59:06.151Z,18.90
2022-09-15T06:02:10.665Z,18.93
2022-09-15T06:05:14.167Z,18.96
2022-09-15T06:08:18.261Z,18.93
2022-09-15T06:11:24.443Z,19.01
2022-09-15T06:14:27.187Z,19.05
2022-09-15T06:17:32.951Z,19.13
2022-09-15T06:20:36.446Z,19.13
2022-09-15T06:23:40.692Z,19.18
2022-09-15T06:26:43.983Z,19.30
2022-09-15T06:29:47.334Z,19.34
2022-09-15T06:32:50.320Z,19.43
2022-09-15T06:35:53.918Z,19.70
2022-09-15T06:38:57.148Z,19.79
2022-09-15T06:42:03.673Z,19.90
2022-09-15T06:45:10.777Z,20.00
2022-09-15T06:48:24.552Z,20.10
2022-09-15T06:51:31.444Z,20.29
2022-09-15T06:54:34.803Z,20.25
2022-09-15T06:57:37.655Z,20.19
2022-09-15T07:00:41.274Z,20.00
2022-09-15T07:03:44.312Z,20.49
2022-09-15T07:06:48.270Z,20.81
2022-09-15T07:09:51.000Z,21.06
2022-09-15T07:12:54.276Z,21.23
2022-09-15T07:16:00.045Z,21.26
2022-09-15T07:19:05.949Z,21.28
2022-09-15T07:22:08.837Z,21.16
2022-09-15T07:25:12.079Z,21.13
2022-09-15T07:28:15.870Z,21.06
2022-09-15T07:31:22.018Z,21.11
2022-09-15T07:34:25.569Z,21.52
2022-09-15T07:37:28.697Z,22.19
2022-09-15T07:40:32.236Z,22.25
2022-09-15T07:43:35.572Z,23.38
2022-09-15T07:46:38.301Z,23.92
2022-09-15T07:49:42.216Z,23.53
2022-09-15T07:52:44.979Z,22.90
2022-09-15T07:55:54.529Z,22.91
2022-09-15T07:58:57.422Z,22.84
2022-09-15T08:02:00.643Z,22.84
2022-09-15T08:05:03.961Z,22.63
2022-09-15T08:08:07.181Z,22.24
2022-09-15T08:11:18.516Z,22.20
2022-09-15T08:14:22.057Z,22.68
2022-09-15T08:17:25.362Z,23.31
2022-09-15T08:20:28.895Z,23.90
2022-09-15T08:23:32.643Z,23.86
2022-09-15T08:26:38.447Z,23.81
2022-09-15T08:29:41.736Z,23.95
2022-09-15T08:32:44.893Z,23.96
2022-09-15T08:35:47.926Z,24.13
2022-09-15T08:38:51.162Z,24.15
2022-09-15T08:41:55.586Z,23.90
2022-09-15T08:45:09.302Z,23.94
2022-09-15T08:48:21.004Z,23.64
2022-09-15T08:51:32.465Z,23.64
2022-09-15T08:54:35.515Z,23.62
2022-09-15T08:57:38.986Z,23.23
2022-09-15T09:00:44.343Z,23.47
2022-09-15T09:04:05.787Z,23.46
2022-09-15T09:07:44.492Z,23.56
2022-09-15T09:10:59.106Z,23.88
2022-09-15T09:14:41.154Z,23.89
2022-09-15T09:18:12.050Z,23.93
2022-09-15T09:21:22.358Z,24.65
2022-09-15T09:24:29.453Z,24.70
2022-09-15T09:27:35.147Z,24.78
2022-09-15T09:30:39.179Z,24.93
2022-09-15T09:33:49.649Z,24.90
2022-09-15T09:36:57.665Z,24.81
2022-09-15T09:40:01.179Z,25.33
2022-09-15T09:43:04.125Z,25.23
2022-09-15T09:46:19.009Z,25.72
2022-09-15T09:49:24.138Z,25.76
2022-09-15T09:52:34.427Z,26.18
2022-09-15T09:55:37.455Z,26.25
2022-09-15T09:58:40.656Z,26.38
2022-09-15T10:02:12.157Z,26.43
2022-09-15T10:05:20.303Z,26.04
2022-09-15T10:08:23.325Z,26.02
2022-09-15T10:11:41.316Z,26.23
2022-09-15T10:14:52.643Z,25.64
2022-09-15T10:17:57.152Z,25.20
2022-09-15T10:21:04.987Z,24.96
2022-09-15T10:24:28.442Z,24.99
2022-09-15T10:27:36.363Z,24.99
2022-09-15T10:30:59.981Z,24.96
2022-09-15T10:34:32.276Z,24.97
2022-09-15T10:38:12.758Z,24.98
2022-09-15T10:41:29.112Z,24.77
2022-09-15T10:44:50.702Z,24.85
2022-09-15T10:48:46.201Z,24.81
2022-09-15T10:52:05.086Z,24.50
2022-09-15T10:55:48.514Z,24.31
2022-09-15T10:59:13.796Z,24.15
2022-09-15T11:02:25.601Z,24.01
2022-09-15T11:05:32.015Z,23.83
2022-09-15T11:09:00.932Z,23.73
2022-09-15T11:12:07.421Z,23.55
2022-09-15T11:15:28.136Z,23.41
2022-09-15T11:18:34.434Z,23.24
2022-09-15T11:21:43.200Z,23.29
2022-09-15T11:25:05.341Z,23.19
2022-09-15T11:28:20.309Z,23.20
2022-09-15T11:31:29.837Z,23.22
2022-09-15T11:34:40.289Z,23.25
2022-09-15T11:37:48.490Z,23.11
2022-09-15T11:41:01.925Z,23.19
2022-09-15T11:44:30.875Z,23.12
2022-09-15T11:47:42.662Z,23.10
2022-09-15T11:50:49.048Z,23.01
2022-09-15T11:53:56.180Z,22.91
2022-09-15T11:57:00.484Z,22.97
2022-09-15T12:00:12.925Z,22.85
2022-09-15T12:03:23.310Z,22.81
2022-09-15T12:06:32.363Z,22.61
2022-09-15T12:09:35.493Z,22.39
2022-09-15T12:12:41.619Z,22.33
2022-09-15T12:15:46.789Z,22.09
2022-09-15T12:18:53.732Z,22.02
2022-09-15T12:22:12.239Z,21.85
2022-09-15T12:25:20.171Z,21.93
2022-09-15T12:28:24.106Z,22.18
2022-09-15T12:31:38.657Z,22.32
2022-09-15T12:34:57.771Z,22.29
2022-09-15T12:38:01.153Z,22.20
2022-09-15T12:41:04.978Z,22.31
2022-09-15T12:44:23.543Z,22.38
2022-09-15T12:47:32.487Z,22.51
2022-09-15T12:50:42.742Z,22.42
2022-09-15T12:53:46.382Z,22.54
2022-09-15T12:56:54.542Z,22.67
2022-09-15T13:00:27.474Z,22.64
2022-09-15T13:07:15.174Z,22.73
2022-09-15T13:10:41.258Z,22.60
2022-09-15T13:13:50.437Z,22.38
2022-09-15T13:17:03.966Z,22.65
2022-09-15T13:20:18.004Z,22.85
2022-09-15T13:23:25.704Z,22.96
2022-09-15T13:26:31.844Z,22.96
2022-09-15T13:30:09.666Z,22.97
2022-09-15T13:33:25.231Z,23.11
2022-09-15T13:40:32.437Z,22.93
2022-09-15T13:43:40.036Z,22.67
2022-09-15T13:46:51.774Z,22.53
2022-09-15T13:50:06.559Z,22.15
2022-09-15T13:53:45.570Z,21.82
2022-09-15T13:56:49.222Z,21.30
2022-09-15T13:59:52.801Z,20.82
2022-09-15T14:03:02.144Z,20.42
2022-09-15T14:06:15.153Z,19.68
2022-09-15T14:09:25.859Z,19.49
2022-09-15T14:12:28.934Z,19.30
2022-09-15T14:15:31.775Z,19.29
2022-09-15T14:18:44.017Z,19.32
2022-09-15T14:21:53.787Z,19.32
2022-09-15T14:25:16.616Z,19.29
2022-09-15T14:28:28.311Z,19.37
2022-09-15T14:31:41.069Z,19.39
2022-09-15T14:34:45.040Z,19.37
2022-09-15T14:37:50.179Z,19.31
2022-09-15T14:40:56.863Z,19.18
2022-09-15T14:43:59.865Z,19.09
2022-09-15T14:47:20.446Z,19.01
2022-09-15T14:50:23.921Z,18.93
2022-09-15T14:53:27.971Z,18.88
2022-09-15T14:56:35.767Z,18.88
2022-09-15T14:59:49.478Z,18.83
2022-09-15T15:02:58.488Z,18.70
2022-09-15T15:09:39.727Z,18.67
2022-09-15T15:12:46.271Z,18.51
2022-09-15T15:15:49.402Z,18.67
2022-09-15T15:18:53.338Z,18.72
2022-09-15T15:22:12.319Z,18.85
2022-09-15T15:25:29.060Z,18.91
2022-09-15T15:28:35.990Z,18.88
2022-09-15T15:31:40.297Z,18.84
2022-09-15T15:35:02.657Z,18.83
2022-09-15T15:38:11.598Z,18.73
2022-09-15T15:41:24.386Z,18.71
2022-09-15T15:44:29.661Z,18.73
2022-09-15T15:47:36.072Z,18.74
2022-09-15T15:50:39.253Z,18.64
2022-09-15T15:53:42.705Z,18.61
2022-09-15T15:56:45.593Z,18.55
2022-09-15T15:59:48.552Z,18.46
2022-09-15T16:02:52.437Z,18.40
2022-09-15T16:05:59.678Z,18.30
2022-09-15T16:09:03.996Z,18.32
2022-09-15T16:12:08.991Z,18.26
2022-09-15T16:15:15.027Z,18.21
2022-09-15T16:18:18.092Z,18.14
2022-09-15T16:21:27.423Z,18.08
2022-09-15T16:24:31.185Z,18.02
2022-09-15T16:27:33.885Z,18.00
2022-09-15T16:30:37.260Z,18.00
2022-09-15T16:33:44.322Z,17.96
2022-09-15T16:36:47.311Z,17.93
2022-09-15T16:39:52.205Z,17.87
2022-09-15T16:42:55.288Z,17.80
2022-09-15T16:45:57.990Z,17.78
2022-09-15T16:49:00.836Z,17.76
2022-09-15T16:52:04.113Z,17.71
2022-09-15T16:55:21.318Z,17.70
2022-09-15T16:58:24.088Z,17.64
2022-09-15T17:01:27.571Z,17.62
2022-09-15T17:04:30.243Z,17.65
2022-09-15T17:07:33.199Z,17.63
2022-09-15T17:10:36.832Z,17.61
2022-09-15T17:13:39.857Z,17.56
2022-09-15T17:16:42.454Z,17.51
2022-09-15T17:19:45.413Z,17.40
2022-09-15T17:22:48.699Z,17.37
2022-09-15T17:25:59.096Z,17.30
2022-09-15T17:29:01.871Z,17.24
2022-09-15T17:32:04.838Z,17.20
2022-09-15T17:35:25.066Z,17.16
2022-09-15T17:38:28.249Z,17.14
2022-09-15T17:41:32.404Z,17.09
2022-09-15T17:44:37.605Z,17.08
2022-09-15T17:47:40.563Z,17.07
2022-09-15T17:50:45.351Z,17.08
2022-09-15T17:53:48.191Z,17.07
2022-09-15T17:56:51.201Z,17.06
2022-09-15T17:59:53.841Z,17.05
2022-09-15T18:02:59.500Z,17.04
2022-09-15T18:06:07.897Z,17.00
2022-09-15T18:09:11.737Z,16.96
2022-09-15T18:12:14.675Z,16.90
2022-09-15T18:15:21.397Z,16.86
2022-09-15T18:18:27.592Z,16.79
2022-09-15T18:21:30.363Z,16.78
2022-09-15T18:24:33.351Z,16.79
2022-09-15T18:27:35.996Z,16.76
2022-09-15T18:30:41.836Z,16.75
2022-09-15T18:33:44.490Z,16.75
2022-09-15T18:36:47.368Z,16.74
2022-09-15T18:39:50.107Z,16.70
2022-09-15T18:42:54.197Z,16.69
2022-09-15T18:46:01.280Z,16.71
2022-09-15T18:49:05.057Z,16.75
2022-09-15T18:52:07.872Z,16.75
2022-09-15T18:55:15.239Z,16.66
2022-09-15T18:58:19.310Z,16.68
2022-09-15T19:01:22.588Z,16.63
2022-09-15T19:04:31.069Z,16.63
2022-09-15T19:07:35.290Z,16.58
2022-09-15T19:10:42.254Z,16.53
2022-09-15T19:13:45.297Z,16.55
2022-09-15T19:16:57.671Z,16.47
2022-09-15T19:20:01.937Z,16.52
2022-09-15T19:23:04.652Z,16.46
2022-09-15T19:26:13.051Z,16.51
2022-09-15T19:29:15.816Z,16.53
2022-09-15T19:32:19.243Z,16.54
2022-09-15T19:35:21.930Z,16.56
2022-09-15T19:38:25.242Z,16.57
2022-09-15T19:41:27.926Z,16.70
2022-09-15T19:44:30.971Z,16.79
2022-09-15T19:47:34.187Z,16.78
2022-09-15T19:50:38.542Z,16.82
2022-09-15T19:53:42.399Z,16.89
2022-09-15T19:56:45.388Z,16.84
2022-09-15T19:59:48.228Z,16.87
2022-09-15T20:02:51.228Z,16.87
2022-09-15T20:05:57.150Z,16.86
2022-09-15T20:09:00.122Z,16.90
2022-09-15T20:12:03.513Z,16.87
2022-09-15T20:15:09.491Z,16.96
2022-09-15T20:18:13.508Z,17.01
2022-09-15T20:21:27.116Z,17.10
2022-09-15T20:24:35.894Z,17.14
2022-09-15T20:27:38.510Z,17.12
2022-09-15T20:30:42.957Z,17.10
2022-09-15T20:33:47.505Z,17.11
2022-09-15T20:36:50.985Z,17.11
2022-09-15T20:39:54.044Z,17.11
2022-09-15T20:42:57.039Z,17.05
2022-09-15T20:46:05.084Z,17.04
2022-09-15T20:49:09.847Z,17.01
2022-09-15T20:52:12.505Z,16.94
2022-09-15T20:55:15.462Z,16.87
2022-09-15T20:58:18.266Z,16.85
2022-09-15T21:01:34.753Z,16.79
2022-09-15T21:04:37.494Z,16.67
2022-09-15T21:07:40.504Z,16.47
2022-09-15T21:10:44.938Z,16.32
2022-09-15T21:13:48.195Z,16.31
2022-09-15T21:16:50.930Z,16.25
2022-09-15T21:19:53.975Z,16.18
2022-09-15T21:22:57.746Z,16.09
2022-09-15T21:26:05.695Z,16.01
2022-09-15T21:29:08.695Z,15.98
2022-09-15T21:32:11.623Z,15.91
2022-09-15T21:35:14.790Z,15.85
2022-09-15T21:38:17.765Z,15.91
2022-09-15T21:41:22.840Z,15.97
2022-09-15T21:44:25.953Z,16.01
2022-09-15T21:47:28.587Z,16.03
2022-09-15T21:50:31.750Z,16.11
2022-09-15T21:53:37.869Z,16.20
2022-09-15T21:56:41.464Z,16.26
2022-09-15T21:59:44.134Z,16.23
2022-09-15T22:02:51.163Z,16.32
2022-09-15T22:05:54.131Z,16.32
2022-09-15T22:08:57.186Z,16.33
2022-09-15T22:12:00.138Z,16.27
2022-09-15T22:15:02.916Z,16.35
2022-09-15T22:18:06.834Z,16.36
2022-09-15T22:21:11.541Z,16.37
2022-09-15T22:24:14.433Z,16.37
2022-09-15T22:27:17.102Z,16.44
2022-09-15T22:30:20.508Z,16.43
2022-09-15T22:33:23.201Z,16.53
2022-09-15T22:36:29.987Z,16.54
2022-09-15T22:39:57.287Z,16.60
2022-09-15T22:42:55.835Z,16.67
2022-09-15T22:45:58.523Z,16.69
2022-09-15T22:49:01.684Z,16.67
2022-09-15T22:52:04.618Z,16.61
2022-09-15T22:55:07.940Z,16.56
2022-09-15T22:58:10.656Z,16.56
2022-09-15T23:01:36.093Z,16.58
2022-09-15T23:04:38.949Z,16.58
2022-09-15T23:07:41.802Z,16.56
2022-09-15T23:10:44.760Z,16.56
2022-09-15T23:13:47.902Z,16.57
2022-09-15T23:16:50.449Z,16.61
2022-09-15T23:19:53.523Z,16.65
2022-09-15T23:22:56.181Z,16.61
2022-09-15T23:25:59.295Z,16.64
2022-09-15T23:29:01.927Z,16.60
2022-09-15T23:32:05.429Z,16.57
2022-09-15T23:35:08.636Z,16.55
2022-09-15T23:38:11.803Z,16.60
2022-09-15T23:41:15.659Z,16.62
2022-09-15T23:44:18.765Z,16.62
2022-09-15T23:47:21.515Z,16.64
2022-09-15T23:50:26.450Z,16.58
2022-09-15T23:53:29.070Z,16.63
2022-09-15T23:56:32.513Z,16.68
2022-09-15T23:59:35.117Z,16.59
